Time;durP1;ratioP1;P1;durP2;ratioP2;P2;SDS_P1;SDS_P2;PMS_P1;PMS_P2;Temp;Humidity;BMP_temperature;BMP_pressure;BME280_temperature;BME280_humidity;BME280_pressure;Samples;Min_cycle;Max_cycle;Signal;HPM_P1;HPM_P2
2023/05/29 00:01:25;;;;;;;6.57;5.67;;;21.90;99.90;;;;;;5111147;28;20684;-91
2023/05/29 00:03:51;;;;;;;8.10;5.17;;;21.90;99.90;;;;;;5092446;28;20424;-88
2023/05/29 00:06:18;;;;;;;6.83;5.80;;;21.80;99.90;;;;;;5112604;28;20203;-88
2023/05/29 00:08:44;;;;;;;10.20;8.33;;;21.90;99.90;;;;;;5111647;28;20528;-89
2023/05/29 00:11:10;;;;;;;25.50;20.43;;;21.90;99.90;;;;;;5114267;28;20436;-89
2023/05/29 00:13:35;;;;;;;17.77;15.37;;;21.90;99.90;;;;;;5113881;28;20176;-89
2023/05/29 00:16:03;;;;;;;9.47;8.00;;;21.90;99.90;;;;;;5111882;28;20927;-90
2023/05/29 00:18:29;;;;;;;11.67;7.83;;;21.90;99.90;;;;;;5093380;28;20187;-90
2023/05/29 00:20:54;;;;;;;10.50;7.17;;;21.80;99.90;;;;;;5093210;28;20427;-89
2023/05/29 00:23:21;;;;;;;12.87;10.33;;;21.80;99.90;;;;;;5111898;28;20427;-89
2023/05/29 00:25:47;;;;;;;11.53;9.10;;;21.80;99.90;;;;;;5111634;28;20199;-90
2023/05/29 00:28:13;;;;;;;10.03;7.50;;;21.80;99.90;;;;;;5094137;28;20509;-88
2023/05/29 00:30:39;;;;;;;7.57;6.87;;;21.80;99.90;;;;;;5095288;28;20210;-90
2023/05/29 00:33:05;;;;;;;7.03;5.70;;;21.80;99.90;;;;;;5113227;28;20167;-90
2023/05/29 00:35:31;;;;;;;7.13;6.13;;;21.80;99.90;;;;;;5093315;28;20868;-88
2023/05/29 00:37:57;;;;;;;8.93;6.80;;;21.80;99.90;;;;;;5111255;28;20504;-90
2023/05/29 00:40:23;;;;;;;6.90;5.80;;;21.70;99.90;;;;;;5093171;28;20748;-90
2023/05/29 00:42:49;;;;;;;6.50;5.87;;;21.70;99.90;;;;;;5111435;28;20397;-90
2023/05/29 00:45:15;;;;;;;6.50;5.80;;;21.70;99.90;;;;;;5093264;28;20968;-89
2023/05/29 00:47:42;;;;;;;7.37;5.77;;;21.70;99.90;;;;;;5093801;28;20175;-88
2023/05/29 00:50:10;;;;;;;6.57;5.83;;;21.70;99.90;;;;;;5096749;28;20475;-89
2023/05/29 00:52:37;;;;;;;8.03;6.33;;;21.70;99.90;;;;;;5099248;28;20522;-90
2023/05/29 00:55:04;;;;;;;7.13;6.43;;;21.60;99.90;;;;;;5116585;28;20436;-90
2023/05/29 00:57:31;;;;;;;9.90;6.90;;;21.60;99.90;;;;;;5098732;28;20404;-89
2023/05/29 00:59:58;;;;;;;8.50;6.70;;;21.50;99.90;;;;;;5098775;28;20926;-89
2023/05/29 01:02:24;;;;;;;7.17;6.40;;;21.50;99.90;;;;;;5116725;28;20487;-89
2023/05/29 01:04:54;;;;;;;7.97;6.57;;;21.50;99.90;;;;;;5097525;28;20538;-88
2023/05/29 01:07:20;;;;;;;6.37;5.77;;;21.40;99.90;;;;;;5096385;28;20496;-90
2023/05/29 01:09:45;;;;;;;7.80;6.13;;;21.40;99.90;;;;;;5096507;28;20474;-90
2023/05/29 01:12:14;;;;;;;8.80;6.23;;;21.40;99.90;;;;;;5114741;28;20803;-88
2023/05/29 01:14:55;;;;;;;6.83;6.13;;;21.40;99.90;;;;;;5114682;28;20289;-90
2023/05/29 01:17:45;;;;;;;7.50;5.87;;;21.40;99.90;;;;;;5096446;28;20475;-90
2023/05/29 01:20:17;;;;;;;6.67;5.80;;;21.40;99.90;;;;;;5114543;28;20450;-89
2023/05/29 01:23:05;;;;;;;7.17;5.73;;;21.40;99.90;;;;;;5114763;28;20392;-90
2023/05/29 01:25:53;;;;;;;7.60;6.40;;;21.40;99.90;;;;;;5114557;28;20439;-88
2023/05/29 01:28:21;;;;;;;8.43;7.03;;;21.40;99.90;;;;;;5096454;28;20467;-90
2023/05/29 01:30:49;;;;;;;7.43;5.87;;;21.40;99.90;;;;;;5096224;28;20427;-91
2023/05/29 01:33:15;;;;;;;6.10;5.50;;;21.40;99.90;;;;;;5096301;28;20434;-89
2023/05/29 01:35:41;;;;;;;6.50;5.90;;;21.40;99.90;;;;;;5114463;28;20424;-89
2023/05/29 01:38:06;;;;;;;6.77;6.07;;;21.40;99.90;;;;;;5096253;28;20263;-90
2023/05/29 01:40:32;;;;;;;7.07;6.37;;;21.40;99.90;;;;;;5096012;28;20211;-89
2023/05/29 01:42:58;;;;;;;8.27;6.47;;;21.40;99.90;;;;;;5096065;28;20224;-89
2023/05/29 01:45:24;;;;;;;6.30;5.70;;;21.40;99.90;;;;;;5095889;28;20191;-90
2023/05/29 01:47:50;;;;;;;7.40;6.17;;;21.40;99.90;;;;;;5114355;28;20637;-90
2023/05/29 01:50:18;;;;;;;13.40;6.90;;;21.40;99.90;;;;;;5114403;28;20765;-89
2023/05/29 01:52:44;;;;;;;9.27;6.60;;;21.30;99.90;;;;;;5096238;28;20929;-91
2023/05/29 01:55:10;;;;;;;9.70;7.03;;;21.30;99.90;;;;;;5114715;28;20428;-90
2023/05/29 01:57:36;;;;;;;6.83;6.13;;;21.30;99.90;;;;;;5096562;28;20865;-90
2023/05/29 02:00:08;;;;;;;7.07;6.27;;;21.30;99.90;;;;;;5099285;28;20855;-89
2023/05/29 02:02:41;;;;;;;7.13;6.33;;;21.30;99.90;;;;;;5098312;28;20412;-89
2023/05/29 02:05:08;;;;;;;8.83;7.43;;;21.30;99.90;;;;;;5096003;28;20432;-90
2023/05/29 02:07:36;;;;;;;10.33;6.97;;;21.20;99.90;;;;;;5116185;28;20420;-91
2023/05/29 02:10:03;;;;;;;11.37;7.00;;;21.20;99.90;;;;;;5098860;28;20475;-89
2023/05/29 02:12:28;;;;;;;7.03;6.33;;;21.20;99.90;;;;;;5100069;28;20999;-89
2023/05/29 02:14:54;;;;;;;9.17;6.63;;;21.20;99.90;;;;;;5116532;28;20467;-90
2023/05/29 02:17:20;;;;;;;9.13;6.87;;;21.20;99.90;;;;;;5092746;28;20592;-89
2023/05/29 02:19:46;;;;;;;8.07;6.33;;;21.20;99.90;;;;;;5094557;28;20168;-90
2023/05/29 02:22:12;;;;;;;8.83;7.37;;;21.20;99.90;;;;;;5094040;28;20409;-88
2023/05/29 02:24:38;;;;;;;7.00;6.30;;;21.20;99.90;;;;;;5094000;28;20244;-89
2023/05/29 02:27:04;;;;;;;33.17;8.50;;;21.20;99.90;;;;;;5093915;28;20496;-89
2023/05/29 02:29:29;;;;;;;8.00;6.70;;;21.20;99.90;;;;;;5092579;28;20212;-90
2023/05/29 02:31:55;;;;;;;8.00;7.20;;;21.20;99.90;;;;;;5092286;28;20424;-88
2023/05/29 02:34:24;;;;;;;8.67;6.47;;;21.10;99.90;;;;;;5093988;28;20168;-89
2023/05/29 02:36:54;;;;;;;7.70;6.30;;;21.10;99.90;;;;;;5093430;28;20200;-90
2023/05/29 02:39:20;;;;;;;10.03;7.40;;;21.10;99.90;;;;;;5092430;28;20533;-91
2023/05/29 02:41:46;;;;;;;8.40;7.33;;;21.10;99.90;;;;;;5092150;28;20992;-90
2023/05/29 02:44:11;;;;;;;8.50;7.10;;;21.20;99.90;;;;;;5093673;28;20172;-90
2023/05/29 02:46:37;;;;;;;8.70;7.80;;;21.10;99.90;;;;;;5092017;28;20254;-90
2023/05/29 02:49:02;;;;;;;7.50;6.80;;;21.10;99.90;;;;;;5093750;28;20741;-90
2023/05/29 02:51:28;;;;;;;6.83;6.23;;;21.10;99.90;;;;;;5092173;28;20222;-90
2023/05/29 02:53:54;;;;;;;9.20;7.33;;;21.20;99.90;;;;;;5093743;28;20168;-89
2023/05/29 02:56:23;;;;;;;7.67;6.87;;;21.10;99.90;;;;;;5093408;28;20208;-90
2023/05/29 02:58:52;;;;;;;9.13;7.23;;;21.10;99.90;;;;;;5096713;28;20167;-90
2023/05/29 03:01:18;;;;;;;10.20;7.37;;;21.10;99.90;;;;;;5096735;28;20429;-90
2023/05/29 03:03:44;;;;;;;8.27;7.27;;;21.10;99.90;;;;;;5095710;28;20424;-90
2023/05/29 03:06:12;;;;;;;8.47;6.90;;;21.10;99.90;;;;;;5095411;28;21010;-89
2023/05/29 03:08:41;;;;;;;9.47;7.50;;;21.10;99.90;;;;;;5095343;28;20477;-89
2023/05/29 03:11:13;;;;;;;7.43;6.67;;;21.10;99.90;;;;;;5095543;28;20473;-90
2023/05/29 03:13:39;;;;;;;8.73;7.60;;;21.10;99.90;;;;;;5095869;28;20771;-90
2023/05/29 03:16:05;;;;;;;8.97;6.53;;;21.10;99.90;;;;;;5097326;28;20449;-89
2023/05/29 03:18:30;;;;;;;7.80;6.60;;;21.00;99.90;;;;;;5116594;28;20454;-91
2023/05/29 03:20:57;;;;;;;8.70;7.47;;;21.00;99.90;;;;;;5101958;28;20195;-89
2023/05/29 03:23:22;;;;;;;9.20;6.83;;;21.00;99.90;;;;;;5099759;28;20244;-90
2023/05/29 03:25:48;;;;;;;11.00;7.70;;;21.00;99.90;;;;;;5100081;28;20878;-90
2023/05/29 03:28:14;;;;;;;7.80;7.00;;;21.00;99.90;;;;;;5118802;28;20254;-89
2023/05/29 03:30:39;;;;;;;9.90;6.90;;;21.00;99.90;;;;;;5117604;28;20205;-90
2023/05/29 03:33:05;;;;;;;9.37;7.50;;;21.00;99.90;;;;;;5098625;28;20175;-89
2023/05/29 03:35:31;;;;;;;7.33;6.40;;;21.00;99.90;;;;;;5098362;28;20675;-89
2023/05/29 03:37:57;;;;;;;9.40;7.00;;;21.00;99.90;;;;;;5098431;28;20187;-89
2023/05/29 03:40:22;;;;;;;7.70;6.63;;;21.00;99.90;;;;;;5098247;28;20746;-90
2023/05/29 03:42:48;;;;;;;12.10;7.37;;;21.00;99.90;;;;;;5098332;28;20598;-90
2023/05/29 03:45:14;;;;;;;9.43;6.80;;;21.00;99.90;;;;;;5098191;28;20253;-90
2023/05/29 03:47:40;;;;;;;7.77;7.00;;;21.00;99.90;;;;;;5098268;28;20172;-89
2023/05/29 03:50:06;;;;;;;7.67;6.17;;;21.00;99.90;;;;;;5116061;28;20471;-90
2023/05/29 03:52:32;;;;;;;8.37;7.30;;;21.00;99.90;;;;;;5116182;28;20178;-89
2023/05/29 03:54:57;;;;;;;7.67;6.63;;;21.00;99.90;;;;;;5098144;28;20440;-89
2023/05/29 03:57:23;;;;;;;9.53;7.23;;;21.00;99.90;;;;;;5098086;28;20256;-88
2023/05/29 03:59:48;;;;;;;8.63;7.03;;;21.00;99.90;;;;;;5116423;28;20183;-89
2023/05/29 04:02:14;;;;;;;9.30;6.73;;;21.00;99.90;;;;;;5116078;28;20263;-88
2023/05/29 04:04:40;;;;;;;9.03;7.93;;;21.00;99.90;;;;;;5116417;28;20168;-90
2023/05/29 04:07:06;;;;;;;8.57;7.10;;;21.00;99.90;;;;;;5115417;28;20180;-90
2023/05/29 04:09:33;;;;;;;7.73;6.90;;;21.00;99.90;;;;;;5097718;28;20680;-90
2023/05/29 04:12:02;;;;;;;7.63;6.93;;;21.00;99.90;;;;;;5098846;28;20446;-89
2023/05/29 04:14:28;;;;;;;8.57;7.00;;;21.00;99.90;;;;;;5100341;28;20928;-90
2023/05/29 04:16:53;;;;;;;10.37;8.10;;;21.00;99.90;;;;;;5099211;28;20479;-91
2023/05/29 04:19:20;;;;;;;8.60;7.20;;;21.00;99.90;;;;;;5116952;28;20430;-90
2023/05/29 04:21:47;;;;;;;8.13;7.33;;;21.00;99.90;;;;;;5099624;28;20221;-90
2023/05/29 04:24:15;;;;;;;8.50;7.30;;;21.10;99.90;;;;;;5100660;28;20441;-90
2023/05/29 04:26:41;;;;;;;7.70;6.60;;;21.10;99.90;;;;;;5100407;28;20955;-89
2023/05/29 04:29:12;;;;;;;8.80;7.90;;;21.10;99.90;;;;;;5098666;28;20472;-89
2023/05/29 04:31:38;;;;;;;8.97;7.70;;;21.10;99.90;;;;;;5098888;28;20196;-89
2023/05/29 04:34:04;;;;;;;10.37;7.67;;;21.20;99.90;;;;;;5097481;28;20423;-90
2023/05/29 04:36:32;;;;;;;8.80;7.90;;;21.20;99.90;;;;;;5097157;28;20428;-89
2023/05/29 04:38:58;;;;;;;9.80;7.00;;;21.20;99.90;;;;;;5097849;28;20872;-89
2023/05/29 04:41:29;;;;;;;9.53;8.00;;;21.20;99.90;;;;;;5115259;28;20477;-90
2023/05/29 04:43:56;;;;;;;8.37;7.00;;;21.20;99.90;;;;;;5115300;28;20420;-89
2023/05/29 04:46:23;;;;;;;10.17;7.67;;;21.30;99.90;;;;;;5096826;28;20455;-90
2023/05/29 04:48:52;;;;;;;8.40;7.50;;;21.20;99.90;;;;;;5115305;28;20464;-90
2023/05/29 04:51:22;;;;;;;9.27;7.30;;;21.30;99.90;;;;;;5115011;28;20777;-90
2023/05/29 04:53:48;;;;;;;8.80;7.60;;;21.30;99.90;;;;;;5096965;28;20831;-90
2023/05/29 04:56:14;;;;;;;8.77;7.23;;;21.30;99.90;;;;;;5096684;28;20476;-90
2023/05/29 04:58:41;;;;;;;7.40;6.67;;;21.30;99.90;;;;;;5096703;28;21024;-90
2023/05/29 05:01:08;;;;;;;9.50;7.60;;;21.30;99.90;;;;;;5114840;28;20517;-90
2023/05/29 05:03:34;;;;;;;8.60;7.13;;;21.40;99.90;;;;;;5114950;28;20419;-89
2023/05/29 05:06:02;;;;;;;8.63;7.10;;;21.40;99.90;;;;;;5096441;28;20428;-91
2023/05/29 05:08:29;;;;;;;7.20;6.60;;;21.40;99.90;;;;;;5096541;28;20496;-90
2023/05/29 05:10:55;;;;;;;8.27;6.73;;;21.40;99.90;;;;;;5096379;28;20462;-89
2023/05/29 05:13:21;;;;;;;7.90;6.70;;;21.50;99.90;;;;;;5096304;28;20428;-89
2023/05/29 05:15:46;;;;;;;7.83;7.03;;;21.50;99.90;;;;;;5114558;28;20424;-89
2023/05/29 05:18:12;;;;;;;7.53;6.50;;;21.50;99.90;;;;;;5114285;28;20676;-89
2023/05/29 05:20:38;;;;;;;7.90;7.00;;;21.50;99.90;;;;;;5096332;28;20195;-90
2023/05/29 05:23:03;;;;;;;8.00;7.03;;;21.50;99.90;;;;;;5096308;28;20182;-89
2023/05/29 05:25:29;;;;;;;8.53;7.63;;;21.50;99.90;;;;;;5114490;28;20195;-90
2023/05/29 05:27:55;;;;;;;6.73;6.00;;;21.50;99.90;;;;;;5114351;28;20236;-89
2023/05/29 05:30:21;;;;;;;7.03;6.33;;;21.50;99.90;;;;;;5096945;28;20294;-90
2023/05/29 05:32:47;;;;;;;7.43;6.50;;;21.40;99.90;;;;;;5115104;28;20172;-90
2023/05/29 05:35:13;;;;;;;6.70;6.10;;;21.40;99.90;;;;;;5114349;28;20432;-89
2023/05/29 05:37:39;;;;;;;9.90;6.53;;;21.50;99.90;;;;;;5096069;28;20706;-89
2023/05/29 05:40:06;;;;;;;8.10;5.83;;;21.50;99.90;;;;;;5095976;28;20432;-90
2023/05/29 05:42:32;;;;;;;7.83;5.83;;;21.50;99.90;;;;;;5114239;28;20727;-89
2023/05/29 05:44:58;;;;;;;9.80;6.37;;;21.50;99.90;;;;;;5095956;28;20497;-90
2023/05/29 05:47:24;;;;;;;6.97;6.27;;;21.50;99.90;;;;;;5096124;28;20408;-88
2023/05/29 05:49:51;;;;;;;7.90;6.80;;;21.50;99.90;;;;;;5096084;28;20226;-90
2023/05/29 05:52:17;;;;;;;8.90;7.37;;;21.50;99.90;;;;;;5095953;28;20192;-90
2023/05/29 05:54:43;;;;;;;9.60;7.50;;;21.50;99.90;;;;;;5096090;28;20452;-89
2023/05/29 05:57:10;;;;;;;8.27;7.00;;;21.50;99.90;;;;;;5114159;28;20491;-88
2023/05/29 05:59:36;;;;;;;9.63;8.33;;;21.60;99.90;;;;;;5095102;28;20420;-89
2023/05/29 06:02:03;;;;;;;9.23;7.90;;;21.60;99.90;;;;;;5093766;28;20888;-88
2023/05/29 06:04:29;;;;;;;10.33;7.80;;;21.60;99.90;;;;;;5112430;28;20193;-89
2023/05/29 06:06:55;;;;;;;8.40;7.60;;;21.60;99.90;;;;;;5093736;28;20420;-88
2023/05/29 06:09:21;;;;;;;8.67;7.37;;;21.70;99.90;;;;;;5093899;28;20471;-90
2023/05/29 06:11:47;;;;;;;9.17;6.73;;;21.70;99.90;;;;;;5093617;28;20203;-90
2023/05/29 06:14:13;;;;;;;8.73;6.70;;;21.80;99.90;;;;;;5093676;28;21048;-90
2023/05/29 06:16:39;;;;;;;7.37;6.57;;;21.80;99.90;;;;;;5094014;28;20964;-90
2023/05/29 06:19:05;;;;;;;9.47;7.13;;;21.90;99.90;;;;;;5095919;28;20437;-90
2023/05/29 06:21:32;;;;;;;6.97;6.30;;;21.90;99.90;;;;;;5095787;28;20604;-87
2023/05/29 06:23:57;;;;;;;6.37;5.70;;;22.00;99.90;;;;;;5115223;28;20593;-87
2023/05/29 06:26:26;;;;;;;6.70;6.00;;;22.00;99.90;;;;;;5128031;28;20481;-90
2023/05/29 06:28:53;;;;;;;7.90;5.70;;;22.10;99.90;;;;;;5115945;28;20218;-87
2023/05/29 06:31:19;;;;;;;13.80;6.50;;;22.10;99.90;;;;;;5118809;27;20427;-86
2023/05/29 06:33:45;;;;;;;8.23;6.00;;;22.10;99.90;;;;;;5120001;27;20479;-88
2023/05/29 06:36:11;;;;;;;6.30;5.70;;;22.10;99.90;;;;;;5136801;27;20443;-83
2023/05/29 06:38:37;;;;;;;13.03;6.40;;;22.20;99.90;;;;;;5119954;27;20477;-84
2023/05/29 06:41:03;;;;;;;9.70;5.97;;;22.20;99.90;;;;;;5119493;27;20466;-84
2023/05/29 06:43:29;;;;;;;8.03;6.20;;;22.30;99.90;;;;;;5138033;27;20179;-83
2023/05/29 06:45:55;;;;;;;6.60;5.57;;;22.30;99.90;;;;;;5117472;27;20205;-84
2023/05/29 06:48:21;;;;;;;7.30;6.10;;;22.30;99.90;;;;;;5135722;27;20470;-85
2023/05/29 06:50:50;;;;;;;10.57;6.33;;;22.30;99.90;;;;;;5117090;27;20427;-84
2023/05/29 06:53:16;;;;;;;7.30;6.10;;;22.30;99.90;;;;;;5117085;27;20426;-83
2023/05/29 06:55:41;;;;;;;7.10;6.17;;;22.30;99.90;;;;;;5135978;27;20431;-83
2023/05/29 06:58:07;;;;;;;7.27;5.40;;;22.30;99.90;;;;;;5117096;27;20320;-84
2023/05/29 07:00:32;;;;;;;7.00;6.30;;;22.30;99.90;;;;;;5135529;27;20671;-83
2023/05/29 07:02:58;;;;;;;7.60;6.17;;;22.30;99.90;;;;;;5137667;27;20254;-83
2023/05/29 07:05:24;;;;;;;7.23;6.53;;;22.30;99.90;;;;;;5137569;27;20191;-83
2023/05/29 07:07:50;;;;;;;7.00;6.30;;;22.40;99.90;;;;;;5118989;27;20232;-84
2023/05/29 07:10:15;;;;;;;7.53;5.93;;;22.40;99.90;;;;;;5119007;27;20608;-83
2023/05/29 07:12:41;;;;;;;9.03;6.37;;;22.40;99.90;;;;;;5137444;27;20174;-83
2023/05/29 07:15:07;;;;;;;6.97;6.23;;;22.50;99.90;;;;;;5118980;27;20205;-83
2023/05/29 07:17:32;;;;;;;8.30;6.67;;;22.50;99.90;;;;;;5137156;27;20231;-84
2023/05/29 07:19:58;;;;;;;9.10;6.23;;;22.50;99.90;;;;;;5137180;27;20488;-83
2023/05/29 07:22:24;;;;;;;7.00;5.70;;;22.50;99.90;;;;;;5118951;27;20170;-82
2023/05/29 07:24:50;;;;;;;8.17;6.03;;;22.50;99.90;;;;;;5118708;27;20227;-82
2023/05/29 07:27:16;;;;;;;9.43;7.07;;;22.50;99.90;;;;;;5137179;27;20434;-83
2023/05/29 07:29:41;;;;;;;8.20;6.30;;;22.60;99.90;;;;;;5137429;27;20210;-84
2023/05/29 07:32:07;;;;;;;6.87;6.20;;;22.60;99.90;;;;;;5137124;27;20182;-84
2023/05/29 07:34:33;;;;;;;7.10;6.40;;;22.60;99.90;;;;;;5118641;27;20703;-83
2023/05/29 07:37:03;;;;;;;7.13;6.10;;;22.60;99.90;;;;;;5136994;27;20167;-83
2023/05/29 07:39:30;;;;;;;7.60;6.07;;;22.60;99.90;;;;;;5137413;27;20175;-83
2023/05/29 07:41:55;;;;;;;6.97;6.37;;;22.60;99.90;;;;;;5117589;27;20415;-84
2023/05/29 07:44:21;;;;;;;7.77;6.47;;;22.70;99.90;;;;;;5118676;27;20797;-84
2023/05/29 07:46:47;;;;;;;6.73;6.07;;;22.70;99.90;;;;;;5118355;27;20714;-84
2023/05/29 07:49:13;;;;;;;6.67;6.00;;;22.70;99.90;;;;;;5118394;27;20562;-83
2023/05/29 07:51:39;;;;;;;7.90;6.73;;;22.80;99.90;;;;;;5118283;27;20203;-83
2023/05/29 07:54:06;;;;;;;7.23;6.53;;;22.80;99.90;;;;;;5136957;27;20967;-84
2023/05/29 07:56:33;;;;;;;6.90;6.20;;;22.90;99.90;;;;;;5118137;27;20316;-84
2023/05/29 07:58:59;;;;;;;6.77;6.10;;;22.90;99.90;;;;;;5118073;27;20469;-84
2023/05/29 08:01:26;;;;;;;8.03;6.17;;;22.90;99.90;;;;;;5136471;27;20514;-84
2023/05/29 08:03:52;;;;;;;6.90;5.27;;;22.90;99.90;;;;;;5136708;27;20431;-84
2023/05/29 08:06:18;;;;;;;6.17;5.67;;;23.00;99.90;;;;;;5136410;27;20489;-83
2023/05/29 08:08:44;;;;;;;8.83;5.50;;;23.00;99.90;;;;;;5118070;27;20470;-83
2023/05/29 08:11:10;;;;;;;6.20;5.60;;;23.00;99.90;;;;;;5117739;27;20423;-84
2023/05/29 08:13:36;;;;;;;7.63;6.67;;;23.10;99.90;;;;;;5117845;27;20571;-83
2023/05/29 08:16:02;;;;;;;6.17;5.67;;;23.10;99.90;;;;;;5136105;27;20526;-84
2023/05/29 08:18:31;;;;;;;6.43;5.50;;;23.10;99.90;;;;;;5135942;27;20552;-84
2023/05/29 08:20:57;;;;;;;5.53;5.03;;;23.10;99.90;;;;;;5118071;27;20439;-85
2023/05/29 08:23:23;;;;;;;5.90;5.30;;;23.10;99.90;;;;;;5118210;27;20423;-84
2023/05/29 08:25:49;;;;;;;6.13;5.13;;;23.20;99.90;;;;;;5117708;27;20966;-85
2023/05/29 08:28:15;;;;;;;8.77;6.27;;;23.20;99.90;;;;;;5136495;27;20231;-83
2023/05/29 08:30:41;;;;;;;5.63;5.13;;;23.20;99.90;;;;;;5117437;27;20290;-84
2023/05/29 08:33:07;;;;;;;6.13;5.63;;;23.30;99.90;;;;;;5117464;27;20457;-85
2023/05/29 08:35:33;;;;;;;7.97;6.27;;;23.30;99.90;;;;;;5135735;27;20796;-83
2023/05/29 08:37:59;;;;;;;6.63;5.93;;;23.30;99.90;;;;;;5117256;27;20179;-84
2023/05/29 08:40:25;;;;;;;7.40;6.20;;;23.30;99.90;;;;;;5117277;27;20775;-84
2023/05/29 08:42:57;;;;;;;5.77;5.33;;;23.40;99.90;;;;;;5135611;27;20452;-85
2023/05/29 08:45:24;;;;;;;7.40;6.17;;;23.40;99.90;;;;;;5117037;27;20890;-84
2023/05/29 08:47:53;;;;;;;7.57;5.97;;;23.40;99.90;;;;;;5135617;27;20730;-84
2023/05/29 08:50:23;;;;;;;6.50;5.80;;;23.40;99.90;;;;;;5135425;27;20471;-85
2023/05/29 08:52:49;;;;;;;6.67;6.07;;;23.40;99.90;;;;;;5116992;27;21017;-84
2023/05/29 08:55:16;;;;;;;5.80;5.30;;;23.40;99.90;;;;;;5117006;27;20437;-84
2023/05/29 08:57:45;;;;;;;6.77;5.70;;;23.50;99.90;;;;;;5135314;27;20399;-85
2023/05/29 09:00:18;;;;;;;6.07;5.50;;;23.50;99.90;;;;;;5116805;27;20439;-84
2023/05/29 09:02:44;;;;;;;6.10;5.50;;;23.50;99.90;;;;;;5116842;27;20954;-85
2023/05/29 09:05:10;;;;;;;5.80;5.30;;;23.60;99.90;;;;;;5135100;27;20485;-84
2023/05/29 09:07:39;;;;;;;8.60;6.03;;;23.60;99.90;;;;;;5116667;27;20433;-85
2023/05/29 09:10:09;;;;;;;7.00;6.23;;;23.50;99.90;;;;;;5116660;27;20562;-84
2023/05/29 09:12:35;;;;;;;7.07;6.37;;;23.40;99.90;;;;;;5135044;27;20403;-84
2023/05/29 09:15:01;;;;;;;7.00;6.30;;;23.50;99.90;;;;;;5134960;27;20436;-84
2023/05/29 09:17:34;;;;;;;5.73;5.23;;;23.50;99.90;;;;;;5135025;27;20975;-84
2023/05/29 09:20:01;;;;;;;7.77;6.30;;;23.50;99.90;;;;;;5116624;27;20447;-84
2023/05/29 09:22:26;;;;;;;6.87;5.90;;;23.60;99.90;;;;;;5116605;27;20405;-83
2023/05/29 09:24:52;;;;;;;6.83;6.23;;;23.60;99.90;;;;;;5116578;27;20436;-84
2023/05/29 09:27:18;;;;;;;6.27;5.67;;;23.60;99.90;;;;;;5134963;27;20589;-83
2023/05/29 09:33:09;;;;;;;6.43;5.83;;;23.70;99.90;;;;;;5136003;27;20607;-84
2023/05/29 09:35:43;;;;;;;7.20;6.10;;;23.70;99.90;;;;;;5135205;27;21036;-84
2023/05/29 09:38:11;;;;;;;6.30;5.70;;;23.70;99.90;;;;;;5135332;27;20411;-85
2023/05/29 09:40:38;;;;;;;6.10;5.60;;;23.70;99.90;;;;;;5116955;27;20794;-85
2023/05/29 09:43:12;;;;;;;7.03;6.33;;;23.70;99.90;;;;;;5135185;27;20413;-84
2023/05/29 09:45:43;;;;;;;6.50;5.90;;;23.70;99.90;;;;;;5116261;28;20437;-85
2023/05/29 09:48:15;;;;;;;8.23;6.30;;;23.80;99.90;;;;;;5116275;28;20438;-84
2023/05/29 09:50:47;;;;;;;6.53;5.93;;;23.70;99.90;;;;;;5134430;27;20511;-84
2023/05/29 09:53:19;;;;;;;6.47;5.80;;;23.80;99.90;;;;;;5094667;28;20534;-84
2023/05/29 09:55:47;;;;;;;6.77;6.17;;;23.80;99.90;;;;;;5093700;28;20453;-85
2023/05/29 09:58:22;;;;;;;6.40;5.80;;;23.80;99.90;;;;;;5092027;28;20432;-84
2023/05/29 10:00:49;;;;;;;6.60;5.87;;;23.90;99.90;;;;;;5095753;28;20973;-85
2023/05/29 10:03:16;;;;;;;7.17;6.07;;;23.90;99.90;;;;;;5093943;28;20517;-84
2023/05/29 10:05:46;;;;;;;7.23;6.13;;;23.90;99.90;;;;;;5113670;28;20440;-85
2023/05/29 10:08:13;;;;;;;8.13;6.27;;;23.90;99.90;;;;;;5097938;28;20490;-85
2023/05/29 10:10:43;;;;;;;7.03;6.00;;;24.00;99.90;;;;;;5097091;28;20427;-84
2023/05/29 10:13:13;;;;;;;10.30;7.20;;;24.00;99.90;;;;;;5093469;28;20437;-85
2023/05/29 10:15:45;;;;;;;5.90;5.40;;;24.00;99.90;;;;;;5096138;28;20441;-86
2023/05/29 10:18:20;;;;;;;9.90;6.23;;;24.00;99.90;;;;;;5116927;28;20457;-85
2023/05/29 10:20:51;;;;;;;8.53;5.70;;;24.00;99.90;;;;;;5098636;28;20457;-85
2023/05/29 10:23:18;;;;;;;6.33;5.60;;;24.00;99.90;;;;;;5094940;28;20784;-84
2023/05/29 10:25:48;;;;;;;6.40;5.80;;;23.90;99.90;;;;;;5076854;28;20839;-84
2023/05/29 10:28:14;;;;;;;6.73;6.03;;;23.80;99.90;;;;;;5109440;28;20425;-84
2023/05/29 10:30:57;;;;;;;5.53;5.10;;;23.80;99.90;;;;;;5098283;28;20502;-85
2023/05/29 10:33:50;;;;;;;6.93;6.30;;;23.90;99.90;;;;;;5117907;28;20415;-84
2023/05/29 10:36:26;;;;;;;5.73;5.23;;;23.90;99.90;;;;;;5117462;28;20454;-85
2023/05/29 10:38:53;;;;;;;5.60;5.10;;;23.90;99.90;;;;;;5117528;28;20421;-85
2023/05/29 10:41:28;;;;;;;5.87;5.27;;;24.00;99.90;;;;;;5099166;28;20430;-85
2023/05/29 10:43:58;;;;;;;7.70;6.00;;;24.10;99.90;;;;;;5099043;28;20516;-84
2023/05/29 10:46:43;;;;;;;6.70;5.70;;;24.10;99.90;;;;;;5116932;28;20440;-86
2023/05/29 10:49:21;;;;;;;6.07;5.57;;;24.20;99.90;;;;;;5117525;28;20465;-85
2023/05/29 10:51:48;;;;;;;6.10;5.03;;;24.20;99.90;;;;;;5098818;28;20513;-85
2023/05/29 10:54:14;;;;;;;6.80;6.20;;;24.20;99.90;;;;;;5117112;28;20417;-85
2023/05/29 10:56:41;;;;;;;6.60;5.70;;;24.30;99.90;;;;;;5117116;28;20422;-85
2023/05/29 10:59:08;;;;;;;6.23;5.00;;;24.40;99.90;;;;;;5099166;28;20468;-85
2023/05/29 11:01:37;;;;;;;5.73;5.13;;;24.40;99.90;;;;;;5117076;28;20425;-84
2023/05/29 11:04:15;;;;;;;4.70;4.27;;;24.40;99.90;;;;;;5098836;28;20502;-85
2023/05/29 11:06:42;;;;;;;6.07;5.47;;;24.50;99.90;;;;;;5098537;28;20790;-85
2023/05/29 11:09:35;;;;;;;5.20;4.80;;;24.60;99.90;;;;;;5098717;28;20470;-85
2023/05/29 11:12:25;;;;;;;5.47;4.93;;;24.70;99.90;;;;;;5116508;28;20403;-85
2023/05/29 11:15:14;;;;;;;6.37;5.77;;;24.70;99.90;;;;;;5118630;28;20455;-85
2023/05/29 11:17:39;;;;;;;6.00;5.03;;;24.80;99.90;;;;;;5115613;28;20458;-85
2023/05/29 11:20:20;;;;;;;6.57;5.47;;;24.70;99.90;;;;;;5097286;28;20529;-85
2023/05/29 11:22:48;;;;;;;4.50;4.10;;;24.80;99.90;;;;;;5116774;28;20199;-86
2023/05/29 11:25:15;;;;;;;6.87;4.80;;;24.80;99.90;;;;;;5116515;28;20442;-83
2023/05/29 11:27:43;;;;;;;6.03;4.60;;;24.90;99.90;;;;;;5098236;28;20419;-84
2023/05/29 11:30:09;;;;;;;5.83;5.33;;;24.90;99.90;;;;;;5097867;28;20494;-84
2023/05/29 11:32:36;;;;;;;5.47;4.97;;;24.90;99.90;;;;;;5098254;28;20400;-83
2023/05/29 11:35:10;;;;;;;5.80;5.30;;;25.00;99.90;;;;;;5116303;28;20474;-85
2023/05/29 11:37:39;;;;;;;5.40;4.80;;;25.00;99.90;;;;;;5097526;28;20433;-84
2023/05/29 11:40:08;;;;;;;5.20;4.80;;;25.00;99.90;;;;;;5116224;28;20442;-84
2023/05/29 11:42:33;;;;;;;5.63;5.13;;;25.00;99.90;;;;;;5115392;28;20812;-84
2023/05/29 11:45:21;;;;;;;5.63;5.13;;;25.10;99.90;;;;;;5115978;28;20446;-85
2023/05/29 11:47:58;;;;;;;4.83;4.43;;;25.10;99.90;;;;;;5097884;28;20183;-84
2023/05/29 11:50:26;;;;;;;7.10;4.80;;;25.20;99.90;;;;;;5097194;28;20490;-85
2023/05/29 11:52:52;;;;;;;5.13;4.67;;;25.20;99.90;;;;;;5097625;28;20419;-85
2023/05/29 11:55:20;;;;;;;4.90;4.50;;;25.20;99.90;;;;;;5115940;28;20428;-86
2023/05/29 11:57:50;;;;;;;6.40;5.23;;;25.20;99.90;;;;;;5096405;28;20430;-84
2023/05/29 12:00:18;;;;;;;7.27;5.50;;;25.30;99.90;;;;;;5096683;28;20959;-84
2023/05/29 12:02:46;;;;;;;6.07;5.50;;;25.40;99.90;;;;;;5096184;28;20499;-85
2023/05/29 12:05:14;;;;;;;5.30;4.80;;;25.50;99.90;;;;;;5114131;28;20947;-85
2023/05/29 12:07:54;;;;;;;6.33;5.83;;;25.50;99.90;;;;;;5096146;28;20435;-84
2023/05/29 12:10:21;;;;;;;6.60;5.30;;;25.50;99.90;;;;;;5093189;28;20558;-85
2023/05/29 12:12:58;;;;;;;5.33;4.83;;;25.50;99.90;;;;;;5113230;28;20946;-85
2023/05/29 12:15:25;;;;;;;7.30;6.23;;;25.50;99.90;;;;;;5113785;28;20431;-85
2023/05/29 12:17:51;;;;;;;5.80;5.20;;;25.50;99.90;;;;;;5113978;28;20463;-85
2023/05/29 12:20:18;;;;;;;6.60;6.00;;;25.60;99.90;;;;;;5096773;28;20803;-85
2023/05/29 12:22:45;;;;;;;5.07;4.40;;;25.60;99.90;;;;;;5115124;28;20456;-84
2023/05/29 12:25:21;;;;;;;5.53;5.03;;;25.60;99.90;;;;;;5096001;28;20431;-84
2023/05/29 12:27:48;;;;;;;5.70;4.83;;;25.50;99.90;;;;;;5095452;28;20436;-85
2023/05/29 12:30:20;;;;;;;5.47;5.07;;;25.60;99.90;;;;;;5113257;28;20529;-85
2023/05/29 12:32:53;;;;;;;5.30;4.80;;;25.50;99.90;;;;;;5112952;28;20410;-85
2023/05/29 12:35:20;;;;;;;5.10;4.70;;;25.50;99.90;;;;;;5095143;28;20439;-85
2023/05/29 12:37:56;;;;;;;4.90;4.50;;;25.50;99.90;;;;;;5095131;28;20962;-85
2023/05/29 12:40:36;;;;;;;6.40;5.40;;;25.50;99.90;;;;;;5094624;28;20443;-86
2023/05/29 12:43:08;;;;;;;5.90;5.40;;;25.50;99.90;;;;;;5113839;28;20422;-85
2023/05/29 12:45:35;;;;;;;5.10;4.70;;;25.50;99.90;;;;;;5095010;28;20846;-84
2023/05/29 12:48:07;;;;;;;5.60;5.10;;;25.50;99.90;;;;;;5112944;28;20423;-85
2023/05/29 12:50:38;;;;;;;5.77;5.20;;;25.50;99.90;;;;;;5095621;28;20520;-85
2023/05/29 12:53:06;;;;;;;8.77;5.60;;;25.50;99.90;;;;;;5114338;28;20798;-86